Time;durP1;ratioP1;P1;durP2;ratioP2;P2;SDS_P1;SDS_P2;PMS_P1;PMS_P2;Temp;Humidity;BMP_temperature;BMP_pressure;BME280_temperature;BME280_humidity;BME280_pressure;Samples;Min_cycle;Max_cycle;Signal;HPM_P1;HPM_P2
2022/04/25 00:01:59;;;;;;;1.77;1.67;;;8.00;99.90;;;;;;5011859;28;20176;-59
2022/04/25 00:04:25;;;;;;;2.27;2.07;;;8.00;99.90;;;;;;5007147;28;20291;-58
2022/04/25 00:06:51;;;;;;;1.80;1.70;;;8.00;99.90;;;;;;5005118;28;20188;-59
2022/04/25 00:09:16;;;;;;;2.20;2.00;;;8.00;99.90;;;;;;4994677;28;20790;-59
2022/04/25 00:11:42;;;;;;;1.90;1.80;;;8.00;99.90;;;;;;5011206;28;20169;-59
2022/04/25 00:14:08;;;;;;;3.90;1.77;;;8.00;99.90;;;;;;5007037;28;20681;-59
2022/04/25 00:16:33;;;;;;;1.70;1.60;;;8.00;99.90;;;;;;5011593;28;20321;-59
2022/04/25 00:19:02;;;;;;;2.23;2.10;;;8.00;99.90;;;;;;5010306;28;20172;-58
2022/04/25 00:21:28;;;;;;;2.03;1.67;;;8.00;99.90;;;;;;5002164;28;20199;-59
2022/04/25 00:23:53;;;;;;;2.87;1.90;;;8.00;99.90;;;;;;5009226;28;20947;-59
2022/04/25 00:26:19;;;;;;;2.37;1.93;;;8.00;99.90;;;;;;5004524;28;20185;-59
2022/04/25 00:28:45;;;;;;;6.30;2.10;;;8.00;99.90;;;;;;4995248;28;20284;-59
2022/04/25 00:31:10;;;;;;;2.63;1.90;;;8.00;99.90;;;;;;5008400;28;20172;-58
2022/04/25 00:33:36;;;;;;;2.70;2.20;;;8.00;99.90;;;;;;5011010;28;20183;-59
2022/04/25 00:36:03;;;;;;;1.90;1.80;;;8.00;99.90;;;;;;5005131;28;20243;-59
2022/04/25 00:38:28;;;;;;;1.90;1.80;;;7.90;99.90;;;;;;5003196;28;20220;-58
2022/04/25 00:40:54;;;;;;;1.67;1.57;;;8.00;99.90;;;;;;5012877;28;20416;-59
2022/04/25 00:43:19;;;;;;;1.90;1.80;;;8.00;99.90;;;;;;5007381;28;20177;-59
2022/04/25 00:45:45;;;;;;;1.60;1.50;;;7.90;99.90;;;;;;5010374;28;20200;-59
2022/04/25 00:48:11;;;;;;;1.60;1.50;;;8.00;99.90;;;;;;4989283;28;20192;-59
2022/04/25 00:50:38;;;;;;;1.80;1.70;;;8.00;99.90;;;;;;5009637;28;20208;-59
2022/04/25 00:53:05;;;;;;;3.27;1.90;;;8.00;99.90;;;;;;5007333;28;20177;-59
2022/04/25 00:55:31;;;;;;;13.43;3.13;;;8.00;99.90;;;;;;4998365;28;20455;-60
2022/04/25 00:57:57;;;;;;;1.83;1.73;;;7.90;99.90;;;;;;5005513;28;20441;-58
2022/04/25 01:00:24;;;;;;;1.57;1.47;;;7.90;99.90;;;;;;5009271;28;20188;-59
2022/04/25 01:02:50;;;;;;;1.47;1.37;;;7.90;99.90;;;;;;4998736;28;20951;-59
2022/04/25 01:05:19;;;;;;;1.50;1.40;;;7.90;99.90;;;;;;5006695;28;20463;-58
2022/04/25 01:07:44;;;;;;;1.57;1.47;;;7.90;99.90;;;;;;5009200;28;20263;-59
2022/04/25 01:10:11;;;;;;;2.90;1.60;;;7.90;99.90;;;;;;5010556;28;20558;-59
2022/04/25 01:12:37;;;;;;;2.40;2.20;;;7.80;99.90;;;;;;5010809;28;20192;-59
2022/04/25 01:15:06;;;;;;;1.80;1.70;;;7.80;99.90;;;;;;5003143;28;20459;-59
2022/04/25 01:17:31;;;;;;;2.40;2.20;;;7.80;99.90;;;;;;5005847;28;20436;-59
2022/04/25 01:19:57;;;;;;;2.20;2.00;;;7.70;99.90;;;;;;5010641;28;20465;-58
2022/04/25 01:22:32;;;;;;;2.10;2.00;;;7.70;99.90;;;;;;5008013;28;20738;-59
2022/04/25 01:27:42;;;;;;;2.50;2.30;;;7.60;99.90;;;;;;5012269;28;20470;-58
2022/04/25 01:30:09;;;;;;;2.17;2.07;;;7.50;99.90;;;;;;5027570;28;20454;-60
2022/04/25 01:32:36;;;;;;;2.23;2.13;;;7.50;99.90;;;;;;5010072;28;20436;-59
2022/04/25 01:35:02;;;;;;;3.20;2.20;;;7.50;99.90;;;;;;5002571;28;20553;-58
2022/04/25 01:37:28;;;;;;;2.57;2.07;;;7.50;99.90;;;;;;5009482;28;20489;-58
2022/04/25 01:39:55;;;;;;;2.83;2.60;;;7.50;99.90;;;;;;5011021;28;20924;-59
2022/04/25 01:42:22;;;;;;;2.73;2.53;;;7.50;99.90;;;;;;5011176;28;20191;-59
2022/04/25 01:44:48;;;;;;;8.27;2.83;;;7.50;99.90;;;;;;4991341;28;20463;-58
2022/04/25 01:47:13;;;;;;;2.60;2.40;;;7.50;99.90;;;;;;5007300;28;20463;-59
2022/04/25 01:49:39;;;;;;;2.97;2.70;;;7.50;99.90;;;;;;5004153;28;20514;-60
2022/04/25 01:52:18;;;;;;;2.90;2.67;;;7.60;99.90;;;;;;5008845;28;20183;-59
2022/04/25 01:54:44;;;;;;;3.03;2.83;;;7.60;99.90;;;;;;4988532;28;20203;-59
2022/04/25 01:57:12;;;;;;;3.53;3.23;;;7.60;99.90;;;;;;5010220;28;20875;-58
2022/04/25 01:59:39;;;;;;;4.83;3.40;;;7.60;99.90;;;;;;5006949;28;20196;-59
2022/04/25 02:02:05;;;;;;;3.20;3.00;;;7.60;99.90;;;;;;5001816;28;20491;-59
2022/04/25 02:04:31;;;;;;;3.53;2.90;;;7.50;99.90;;;;;;5004198;28;20455;-59
2022/04/25 02:06:58;;;;;;;3.17;2.97;;;7.60;99.90;;;;;;5010285;28;20436;-59
2022/04/25 02:09:24;;;;;;;2.63;2.43;;;7.60;99.90;;;;;;5010005;28;20463;-60
2022/04/25 02:11:50;;;;;;;3.53;2.60;;;7.60;99.90;;;;;;5019928;28;21100;-59
2022/04/25 02:14:16;;;;;;;2.63;2.43;;;7.60;99.90;;;;;;5006773;28;20677;-59
2022/04/25 02:16:42;;;;;;;2.80;2.60;;;7.60;99.90;;;;;;5000454;28;20794;-59
2022/04/25 02:19:08;;;;;;;3.10;2.80;;;7.60;99.90;;;;;;5008526;28;20447;-59
2022/04/25 02:21:34;;;;;;;2.90;2.70;;;7.60;99.90;;;;;;5007534;28;20211;-59
2022/04/25 02:24:00;;;;;;;2.57;2.37;;;7.60;99.90;;;;;;5014413;28;21923;-59
2022/04/25 02:26:26;;;;;;;3.47;3.17;;;7.60;99.90;;;;;;5008766;28;20184;-59
2022/04/25 02:28:54;;;;;;;3.60;3.03;;;7.50;99.90;;;;;;5003733;28;20443;-58
2022/04/25 02:31:21;;;;;;;7.60;3.40;;;7.50;99.90;;;;;;5008079;28;20435;-59
2022/04/25 02:33:47;;;;;;;3.83;3.47;;;7.50;99.90;;;;;;5007169;28;20435;-58
2022/04/25 02:36:13;;;;;;;3.60;3.30;;;7.50;99.90;;;;;;4989773;28;20434;-59
2022/04/25 02:38:40;;;;;;;3.60;3.30;;;7.50;99.90;;;;;;4990320;28;20435;-59
2022/04/25 02:41:06;;;;;;;4.37;3.90;;;7.50;99.90;;;;;;4987831;28;20904;-59
2022/04/25 02:43:42;;;;;;;3.57;3.23;;;7.40;99.90;;;;;;4992864;28;20858;-59
2022/04/25 02:46:18;;;;;;;4.63;3.37;;;7.40;99.90;;;;;;5001938;28;20498;-59
2022/04/25 02:48:46;;;;;;;3.90;3.20;;;7.30;99.90;;;;;;5006328;28;20438;-59
2022/04/25 02:51:13;;;;;;;3.97;3.50;;;7.30;99.90;;;;;;5007439;28;20452;-59
2022/04/25 02:53:39;;;;;;;10.63;3.53;;;7.30;99.90;;;;;;5008317;28;20455;-57
2022/04/25 02:56:05;;;;;;;8.13;3.43;;;7.20;99.90;;;;;;5003076;28;20678;-60
2022/04/25 02:58:33;;;;;;;19.50;4.10;;;7.20;99.90;;;;;;5008623;28;20447;-59
2022/04/25 03:00:59;;;;;;;11.40;3.77;;;7.20;99.90;;;;;;5002417;28;20427;-59
2022/04/25 03:03:25;;;;;;;3.60;2.90;;;7.20;99.90;;;;;;5000832;28;20457;-58
2022/04/25 03:05:52;;;;;;;5.70;4.50;;;7.20;99.90;;;;;;5004040;28;20459;-59
2022/04/25 03:08:20;;;;;;;14.67;4.03;;;7.10;99.90;;;;;;4999987;28;20436;-59
2022/04/25 03:10:47;;;;;;;4.93;3.63;;;7.20;99.90;;;;;;5001569;28;20474;-59
2022/04/25 03:13:17;;;;;;;9.70;3.40;;;7.20;99.90;;;;;;5002056;28;20444;-59
2022/04/25 03:15:44;;;;;;;5.97;3.60;;;7.20;99.90;;;;;;4987753;28;20824;-60
2022/04/25 03:18:12;;;;;;;8.87;3.90;;;7.20;99.90;;;;;;5008790;28;20427;-59
2022/04/25 03:20:38;;;;;;;9.47;3.87;;;7.10;99.90;;;;;;5004886;28;20510;-59
2022/04/25 03:23:07;;;;;;;8.20;5.80;;;7.10;99.90;;;;;;4999869;28;20435;-59
2022/04/25 03:25:34;;;;;;;6.20;4.07;;;7.10;99.90;;;;;;5004950;28;20466;-58
2022/04/25 03:28:00;;;;;;;6.20;4.07;;;7.10;99.90;;;;;;5011814;28;20431;-58
2022/04/25 03:30:26;;;;;;;4.77;4.00;;;7.10;99.90;;;;;;5006889;28;20514;-58
2022/04/25 03:32:52;;;;;;;5.90;4.30;;;7.10;99.90;;;;;;5009624;28;20519;-58
2022/04/25 03:35:19;;;;;;;4.47;3.87;;;7.10;99.90;;;;;;5013105;28;21012;-59
2022/04/25 03:37:46;;;;;;;10.93;4.23;;;7.10;99.90;;;;;;5012297;28;20176;-58
2022/04/25 03:40:13;;;;;;;7.30;3.00;;;7.10;99.90;;;;;;5009469;28;20973;-58
2022/04/25 03:42:40;;;;;;;10.70;4.20;;;7.10;99.90;;;;;;5005846;28;20427;-59
2022/04/25 03:45:09;;;;;;;4.67;3.90;;;7.10;99.90;;;;;;4995836;28;20443;-60
2022/04/25 03:47:35;;;;;;;9.43;4.40;;;7.00;99.90;;;;;;5008888;28;20562;-58
2022/04/25 03:50:02;;;;;;;6.57;3.80;;;7.00;99.90;;;;;;5017267;28;20458;-59
2022/04/25 03:52:28;;;;;;;3.13;2.83;;;7.00;99.90;;;;;;5002518;28;21000;-59
2022/04/25 03:57:39;;;;;;;10.07;3.70;;;7.00;99.90;;;;;;5001393;28;20431;-54
2022/04/25 04:00:06;;;;;;;3.17;2.87;;;7.00;99.90;;;;;;4999833;28;20447;-55
2022/04/25 04:02:33;;;;;;;5.00;3.40;;;6.90;99.90;;;;;;5001742;28;20450;-54
2022/04/25 04:04:59;;;;;;;3.67;3.37;;;6.90;99.90;;;;;;4982687;28;20475;-55
2022/04/25 04:07:25;;;;;;;3.80;3.40;;;6.90;99.90;;;;;;5007882;28;20830;-59
2022/04/25 04:09:51;;;;;;;4.00;3.50;;;6.90;99.90;;;;;;4994609;28;20473;-59
2022/04/25 04:12:18;;;;;;;4.30;3.80;;;6.90;99.90;;;;;;5001459;28;20177;-54
2022/04/25 04:14:46;;;;;;;4.00;3.20;;;6.80;99.90;;;;;;5003945;28;22355;-52
2022/04/25 04:17:12;;;;;;;4.10;3.70;;;6.80;99.90;;;;;;5001035;28;20436;-54
2022/04/25 04:19:39;;;;;;;4.00;3.40;;;6.80;99.90;;;;;;5000629;28;20454;-59
2022/04/25 04:22:05;;;;;;;4.37;3.90;;;6.80;99.90;;;;;;5000099;28;20439;-59
2022/04/25 04:24:32;;;;;;;8.70;6.33;;;6.80;99.90;;;;;;4982983;28;20465;-59
2022/04/25 04:27:01;;;;;;;15.70;9.03;;;6.70;99.90;;;;;;5001652;28;20474;-59
2022/04/25 04:29:32;;;;;;;13.33;7.60;;;6.70;99.90;;;;;;5002863;28;20516;-59
2022/04/25 04:32:07;;;;;;;12.87;7.47;;;6.70;99.90;;;;;;4999970;28;20438;-60
2022/04/25 04:34:34;;;;;;;7.23;5.10;;;6.70;99.90;;;;;;4999934;28;20491;-59
2022/04/25 04:37:01;;;;;;;6.53;5.40;;;6.70;99.90;;;;;;5010408;28;20474;-60
2022/04/25 04:39:27;;;;;;;7.27;5.30;;;6.80;99.90;;;;;;5002543;28;20962;-60
2022/04/25 04:41:53;;;;;;;12.70;6.30;;;6.80;99.90;;;;;;5006850;28;20431;-59
2022/04/25 04:44:19;;;;;;;10.00;5.90;;;6.80;99.90;;;;;;5004365;28;20446;-59
2022/04/25 04:46:44;;;;;;;7.47;5.93;;;6.80;99.90;;;;;;5005272;28;20183;-54
2022/04/25 04:49:10;;;;;;;8.77;6.40;;;6.90;99.90;;;;;;5002078;28;20327;-54
2022/04/25 04:51:36;;;;;;;8.87;5.97;;;6.90;99.90;;;;;;5008134;28;20690;-56
2022/04/25 04:54:02;;;;;;;11.67;6.90;;;6.90;99.90;;;;;;5007156;28;20232;-58
2022/04/25 04:56:32;;;;;;;6.90;5.17;;;6.90;99.90;;;;;;5008733;28;20774;-59
2022/04/25 04:58:58;;;;;;;7.77;5.40;;;7.00;99.90;;;;;;5006928;28;20443;-59
2022/04/25 05:01:24;;;;;;;7.43;5.90;;;7.00;99.90;;;;;;5006311;28;20427;-59
2022/04/25 05:03:50;;;;;;;5.93;4.80;;;7.00;99.90;;;;;;5010779;28;20928;-59
2022/04/25 05:06:16;;;;;;;8.47;5.37;;;7.00;99.90;;;;;;5003658;28;20171;-59
2022/04/25 05:08:41;;;;;;;5.90;4.87;;;7.00;99.90;;;;;;5007543;28;20172;-59
2022/04/25 05:11:11;;;;;;;5.93;5.00;;;7.10;99.90;;;;;;5002506;28;20202;-60
2022/04/25 05:13:37;;;;;;;7.03;5.23;;;7.00;99.90;;;;;;5009161;28;20200;-59
2022/04/25 05:16:04;;;;;;;7.43;5.63;;;7.10;99.90;;;;;;5003232;28;20850;-59
2022/04/25 05:18:32;;;;;;;8.63;7.20;;;7.10;99.90;;;;;;5011799;28;20427;-59
2022/04/25 05:21:01;;;;;;;10.00;7.90;;;7.10;99.90;;;;;;5013449;28;20475;-60
2022/04/25 05:23:27;;;;;;;10.13;7.27;;;7.10;99.90;;;;;;5003125;28;20446;-58
2022/04/25 05:25:54;;;;;;;9.83;6.67;;;7.10;99.90;;;;;;5004429;28;20839;-59
2022/04/25 05:28:21;;;;;;;7.17;5.10;;;7.20;99.90;;;;;;5006574;28;20856;-60
2022/04/25 05:30:47;;;;;;;5.53;4.50;;;7.20;99.90;;;;;;5007997;28;20489;-59
2022/04/25 05:33:13;;;;;;;5.33;4.70;;;7.20;99.90;;;;;;5004501;28;20948;-59
2022/04/25 05:35:38;;;;;;;9.40;3.83;;;7.20;99.90;;;;;;5004950;28;20215;-60
2022/04/25 05:38:06;;;;;;;5.80;4.60;;;7.20;99.90;;;;;;5009452;28;20243;-59
2022/04/25 05:40:32;;;;;;;5.50;4.47;;;7.20;99.90;;;;;;5014046;28;20180;-59
2022/04/25 05:43:02;;;;;;;7.10;5.20;;;7.30;99.90;;;;;;5001944;28;20814;-59
2022/04/25 05:45:27;;;;;;;5.47;4.57;;;7.30;99.90;;;;;;5005689;28;20581;-60
2022/04/25 05:47:55;;;;;;;8.33;5.90;;;7.30;99.90;;;;;;4995429;28;20432;-60
2022/04/25 05:53:05;;;;;;;6.93;5.30;;;7.50;99.90;;;;;;5002730;28;20439;-60
2022/04/25 05:55:31;;;;;;;5.77;5.03;;;7.50;99.90;;;;;;5009370;28;20971;-59
2022/04/25 05:58:00;;;;;;;4.97;4.47;;;7.50;99.90;;;;;;5010045;28;20168;-60
2022/04/25 06:00:26;;;;;;;4.77;4.07;;;7.60;99.90;;;;;;5005724;28;20247;-59
2022/04/25 06:02:52;;;;;;;8.17;4.70;;;7.60;99.90;;;;;;5009464;28;20951;-59
2022/04/25 06:05:17;;;;;;;5.10;4.30;;;7.60;99.90;;;;;;5006822;28;20461;-59
2022/04/25 06:07:45;;;;;;;6.20;5.20;;;7.70;99.90;;;;;;5007549;28;20770;-59
2022/04/25 06:10:12;;;;;;;6.60;4.87;;;7.70;99.90;;;;;;4988797;28;20238;-59
2022/04/25 06:12:42;;;;;;;6.47;4.80;;;7.80;99.90;;;;;;5008077;28;20432;-59
2022/04/25 06:15:09;;;;;;;6.23;5.10;;;7.90;99.90;;;;;;5003476;28;20446;-59
2022/04/25 06:17:36;;;;;;;5.67;4.53;;;8.00;99.90;;;;;;5004312;28;20482;-59
2022/04/25 06:20:02;;;;;;;7.93;5.00;;;8.00;99.90;;;;;;5005895;28;20442;-59
2022/04/25 06:22:28;;;;;;;5.70;5.00;;;8.10;99.90;;;;;;5008836;28;20428;-61
2022/04/25 06:24:54;;;;;;;7.70;6.00;;;8.10;99.90;;;;;;5003035;28;20454;-59
2022/04/25 06:27:19;;;;;;;5.93;4.63;;;8.20;99.90;;;;;;5010554;28;20185;-59
2022/04/25 06:29:46;;;;;;;6.70;5.07;;;8.30;99.90;;;;;;5004545;28;20200;-60
2022/04/25 06:32:12;;;;;;;8.00;5.57;;;8.30;99.90;;;;;;5008529;28;20243;-59
2022/04/25 06:34:39;;;;;;;8.30;6.07;;;8.40;99.90;;;;;;5007780;28;20459;-59
2022/04/25 06:37:05;;;;;;;5.20;4.70;;;8.50;99.90;;;;;;5001039;28;20441;-58
2022/04/25 06:39:31;;;;;;;7.10;5.90;;;8.60;99.90;;;;;;5006360;28;20436;-60
2022/04/25 06:41:57;;;;;;;9.93;7.03;;;8.70;99.90;;;;;;5004125;28;20439;-59
2022/04/25 06:44:22;;;;;;;9.10;6.37;;;8.80;99.90;;;;;;5008718;28;20275;-59
2022/04/25 06:46:48;;;;;;;6.50;5.80;;;8.90;99.90;;;;;;5002005;28;20195;-59
2022/04/25 06:49:20;;;;;;;13.80;6.53;;;9.00;99.90;;;;;;5005088;28;20696;-60
2022/04/25 06:51:47;;;;;;;7.23;5.80;;;9.10;99.90;;;;;;5003595;28;22238;-60
2022/04/25 06:54:16;;;;;;;11.27;5.47;;;9.10;99.90;;;;;;5006709;28;20509;-59
2022/04/25 06:56:41;;;;;;;7.40;5.53;;;9.10;99.90;;;;;;5006075;28;20604;-59
2022/04/25 06:59:07;;;;;;;7.07;5.50;;;9.00;99.90;;;;;;5007999;28;20971;-59
2022/04/25 07:01:33;;;;;;;7.67;5.90;;;9.00;99.90;;;;;;5004676;28;20252;-58
2022/04/25 07:03:59;;;;;;;7.20;6.47;;;9.10;99.90;;;;;;5006100;28;20207;-59
2022/04/25 07:06:26;;;;;;;8.20;5.90;;;9.40;99.90;;;;;;5007560;28;20427;-59
2022/04/25 07:08:52;;;;;;;11.90;6.93;;;9.60;99.90;;;;;;5009529;28;20438;-59
2022/04/25 07:11:18;;;;;;;8.00;5.63;;;9.70;99.90;;;;;;5012553;28;20458;-59
2022/04/25 07:13:45;;;;;;;6.27;5.57;;;9.70;99.90;;;;;;5018998;28;20442;-59
2022/04/25 07:16:14;;;;;;;7.07;4.87;;;9.70;99.90;;;;;;5019897;28;20435;-61
2022/04/25 07:18:41;;;;;;;12.37;5.40;;;9.70;99.90;;;;;;5017545;28;20439;-63
2022/04/25 07:29:20;;;;;;;5.93;4.50;;;9.70;99.90;;;;;;5006510;28;20453;-60
2022/04/25 07:31:47;;;;;;;7.73;4.70;;;9.70;99.90;;;;;;5005724;28;20427;-58
2022/04/25 07:34:13;;;;;;;6.70;5.10;;;9.80;99.90;;;;;;5004178;28;20306;-59
2022/04/25 07:36:38;;;;;;;5.60;4.33;;;9.80;99.90;;;;;;4998708;28;20527;-59
2022/04/25 07:39:04;;;;;;;5.33;4.67;;;9.70;99.90;;;;;;5003742;28;20191;-60
2022/04/25 07:41:30;;;;;;;4.70;3.63;;;9.80;99.90;;;;;;5000466;28;20176;-59
2022/04/25 07:43:56;;;;;;;5.17;4.03;;;9.80;99.90;;;;;;5005540;28;20626;-59
2022/04/25 07:46:26;;;;;;;4.67;4.00;;;9.80;99.90;;;;;;4999643;28;20173;-60
2022/04/25 07:48:52;;;;;;;4.87;4.33;;;9.70;99.90;;;;;;5010526;28;20439;-60
2022/04/25 07:51:18;;;;;;;5.13;4.60;;;9.70;99.90;;;;;;5004250;28;20486;-59
2022/04/25 07:53:44;;;;;;;5.23;3.90;;;9.70;99.90;;;;;;5002186;28;20432;-60
2022/04/25 07:56:10;;;;;;;4.60;4.20;;;9.70;99.90;;;;;;4998481;28;20980;-59
2022/04/25 07:58:37;;;;;;;6.67;4.73;;;9.80;99.90;;;;;;4999942;28;20192;-59
2022/04/25 08:01:03;;;;;;;8.10;5.50;;;9.80;99.90;;;;;;4999952;28;20184;-60
2022/04/25 08:03:29;;;;;;;6.73;5.60;;;9.90;99.90;;;;;;5004208;28;20431;-60
2022/04/25 08:05:55;;;;;;;5.73;5.13;;;10.00;99.90;;;;;;5007192;28;20450;-60
2022/04/25 08:08:21;;;;;;;5.10;4.60;;;10.20;99.90;;;;;;4997799;28;20474;-59
2022/04/25 08:10:46;;;;;;;7.57;4.70;;;10.30;99.90;;;;;;4991403;28;20498;-60
2022/04/25 08:18:41;;;;;;;7.63;5.67;;;10.20;99.90;;;;;;5003724;28;20518;-59
2022/04/25 08:21:06;;;;;;;11.37;7.27;;;10.10;99.90;;;;;;5003384;28;20436;-60
2022/04/25 08:23:32;;;;;;;10.90;6.53;;;10.20;99.90;;;;;;5004022;28;20653;-60
2022/04/25 08:25:58;;;;;;;11.07;6.63;;;10.30;99.90;;;;;;5008133;28;20251;-60
2022/04/25 08:28:25;;;;;;;8.33;6.43;;;10.40;99.90;;;;;;5007257;28;20529;-59
2022/04/25 08:30:52;;;;;;;8.30;6.50;;;10.70;99.90;;;;;;5003484;28;20257;-59
2022/04/25 08:33:19;;;;;;;10.70;6.50;;;11.00;99.90;;;;;;5008745;28;20837;-60
2022/04/25 08:35:45;;;;;;;8.27;6.20;;;11.30;99.90;;;;;;5004780;28;20999;-60
2022/04/25 08:38:11;;;;;;;9.63;6.20;;;11.50;99.90;;;;;;5005312;28;20479;-60
2022/04/25 08:40:38;;;;;;;8.07;6.40;;;11.70;99.90;;;;;;5007603;28;20439;-60
2022/04/25 08:43:05;;;;;;;9.33;5.20;;;11.70;99.90;;;;;;5009620;28;20181;-60
2022/04/25 08:45:32;;;;;;;10.37;5.60;;;11.80;99.90;;;;;;5000493;28;20451;-60
2022/04/25 08:47:59;;;;;;;5.80;4.97;;;11.80;99.90;;;;;;5005833;28;20447;-60
2022/04/25 08:50:29;;;;;;;5.97;4.87;;;11.80;99.90;;;;;;5003365;28;20565;-59
2022/04/25 08:52:56;;;;;;;6.00;4.40;;;11.80;99.90;;;;;;5007545;28;20435;-60
2022/04/25 08:55:22;;;;;;;5.50;5.00;;;11.80;99.90;;;;;;5003272;28;20446;-62
2022/04/25 08:57:50;;;;;;;7.30;5.83;;;11.70;99.90;;;;;;5005335;28;20443;-59
2022/04/25 09:00:16;;;;;;;6.90;5.73;;;11.70;99.90;;;;;;5005138;28;20946;-60
2022/04/25 09:02:44;;;;;;;6.87;5.43;;;11.60;99.90;;;;;;5006934;28;20453;-60
2022/04/25 09:05:11;;;;;;;7.17;6.10;;;11.60;99.90;;;;;;5006877;28;20614;-60
2022/04/25 09:07:38;;;;;;;7.20;5.57;;;11.50;99.90;;;;;;4999393;28;20443;-59
2022/04/25 09:10:08;;;;;;;7.47;6.20;;;11.50;99.90;;;;;;5003652;28;20520;-61
2022/04/25 09:12:38;;;;;;;11.53;6.97;;;11.40;99.90;;;;;;5007738;28;20463;-59
2022/04/25 09:15:05;;;;;;;10.17;7.23;;;11.30;99.90;;;;;;5004187;28;20460;-61
2022/04/25 09:17:32;;;;;;;12.37;6.97;;;11.30;99.90;;;;;;5000661;28;20962;-59
2022/04/25 09:19:58;;;;;;;8.73;6.83;;;11.30;99.90;;;;;;5006019;28;20512;-61
2022/04/25 09:22:32;;;;;;;7.33;6.53;;;11.20;99.90;;;;;;5004319;28;20454;-59
2022/04/25 09:25:12;;;;;;;8.63;7.00;;;11.10;99.90;;;;;;5003613;28;20487;-59
2022/04/25 09:27:39;;;;;;;15.00;6.83;;;11.10;99.90;;;;;;4998773;28;20443;-61
2022/04/25 09:30:22;;;;;;;8.27;6.60;;;11.10;99.90;;;;;;5004463;28;20471;-59
2022/04/25 09:32:51;;;;;;;8.60;6.70;;;11.20;99.90;;;;;;5010148;28;20448;-59
2022/04/25 09:35:33;;;;;;;6.43;5.50;;;11.20;99.90;;;;;;5002746;28;20467;-59
2022/04/25 09:38:02;;;;;;;8.40;6.47;;;11.20;99.90;;;;;;4999336;28;20439;-59
2022/04/25 09:40:29;;;;;;;8.60;5.63;;;11.20;99.90;;;;;;5011000;28;20422;-59
2022/04/25 09:43:07;;;;;;;7.70;6.20;;;11.30;99.90;;;;;;5009069;28;20415;-59
2022/04/25 09:45:34;;;;;;;9.07;5.93;;;11.40;99.90;;;;;;5010401;28;20435;-59
2022/04/25 09:48:00;;;;;;;7.80;5.97;;;11.50;99.90;;;;;;5002733;28;20951;-59
2022/04/25 09:50:28;;;;;;;7.30;6.00;;;11.50;99.90;;;;;;5010327;28;20450;-59
2022/04/25 09:53:03;;;;;;;10.70;6.10;;;11.60;99.90;;;;;;5008250;28;20641;-59
2022/04/25 09:55:34;;;;;;;7.90;6.30;;;11.70;99.90;;;;;;5000993;28;20473;-59
2022/04/25 09:58:14;;;;;;;5.80;4.90;;;11.80;99.90;;;;;;5005188;28;20431;-60
2022/04/25 10:00:39;;;;;;;7.97;5.10;;;11.80;99.90;;;;;;5007446;28;20442;-59
2022/04/25 10:03:07;;;;;;;9.50;5.13;;;11.80;99.90;;;;;;5005548;28;20446;-59
2022/04/25 10:05:47;;;;;;;7.40;5.30;;;11.90;99.90;;;;;;5009339;28;20205;-59
2022/04/25 10:08:15;;;;;;;6.17;4.90;;;11.90;99.90;;;;;;5005486;28;20443;-59
2022/04/25 10:10:49;;;;;;;6.53;5.30;;;12.00;99.90;;;;;;4992917;28;20534;-59
2022/04/25 10:13:15;;;;;;;7.60;5.70;;;12.20;99.90;;;;;;4995196;28;20435;-59
2022/04/25 10:15:42;;;;;;;6.57;5.60;;;12.30;99.90;;;;;;5008489;28;20943;-59
2022/04/25 10:18:09;;;;;;;9.07;6.13;;;12.50;99.90;;;;;;5007165;28;20412;-59
2022/04/25 10:20:36;;;;;;;8.90;5.80;;;12.50;99.90;;;;;;5008995;28;20462;-60
2022/04/25 10:23:05;;;;;;;8.97;6.67;;;12.50;99.90;;;;;;4996416;28;20448;-60
2022/04/25 10:25:31;;;;;;;10.10;6.53;;;12.40;99.90;;;;;;5007434;28;20443;-59
2022/04/25 10:28:01;;;;;;;13.37;6.83;;;12.30;99.90;;;;;;5005744;28;20501;-59
2022/04/25 10:30:33;;;;;;;8.53;5.63;;;12.10;99.90;;;;;;5009304;28;20463;-58
2022/04/25 10:33:16;;;;;;;7.60;5.47;;;12.00;99.90;;;;;;5006811;28;20435;-59
2022/04/25 10:35:44;;;;;;;5.20;4.03;;;11.80;99.90;;;;;;5007823;28;20471;-59
2022/04/25 10:38:50;;;;;;;4.03;3.50;;;11.60;99.90;;;;;;4997737;28;21107;-59
2022/04/25 10:44:17;;;;;;;5.53;4.57;;;11.20;99.90;;;;;;4998561;28;20455;-58
2022/04/25 10:47:14;;;;;;;8.10;5.33;;;11.00;99.90;;;;;;4997559;28;20427;-59
2022/04/25 10:49:59;;;;;;;9.40;5.90;;;10.80;99.90;;;;;;4998445;28;20459;-59
2022/04/25 10:52:42;;;;;;;5.23;4.73;;;10.60;99.90;;;;;;4983433;28;20446;-59
2022/04/25 10:55:23;;;;;;;7.13;5.20;;;10.40;99.90;;;;;;4994606;28;20948;-61
2022/04/25 10:58:04;;;;;;;5.93;4.73;;;10.20;99.90;;;;;;5006553;28;20557;-60
2022/04/25 11:00:36;;;;;;;8.83;5.60;;;10.00;99.90;;;;;;4994033;28;20892;-61
2022/04/25 11:03:19;;;;;;;7.13;4.33;;;9.80;99.90;;;;;;4999336;28;20439;-60
2022/04/25 11:05:48;;;;;;;4.80;4.13;;;9.70;99.90;;;;;;5000033;28;20522;-60
2022/04/25 11:08:20;;;;;;;4.43;3.90;;;9.50;99.90;;;;;;5000014;28;20440;-60
2022/04/25 11:10:57;;;;;;;5.57;4.40;;;9.40;99.90;;;;;;4998179;28;20455;-60
2022/04/25 11:13:26;;;;;;;6.33;4.10;;;9.30;99.90;;;;;;4984773;28;20438;-59
2022/04/25 11:15:53;;;;;;;8.90;4.63;;;9.30;99.90;;;;;;5001104;28;20534;-60
2022/04/25 11:21:05;;;;;;;6.13;4.80;;;9.20;99.90;;;;;;4999175;28;20449;-59
2022/04/25 11:23:33;;;;;;;5.33;4.10;;;9.20;99.90;;;;;;4997636;28;20543;-61
2022/04/25 11:26:00;;;;;;;7.50;4.20;;;9.20;99.90;;;;;;5000450;28;20473;-60
2022/04/25 11:28:27;;;;;;;6.70;4.00;;;9.20;99.90;;;;;;4998116;28;20922;-60
2022/04/25 11:31:19;;;;;;;5.07;3.77;;;9.20;99.90;;;;;;4993101;28;20470;-60
2022/04/25 11:33:47;;;;;;;4.73;4.07;;;9.20;99.90;;;;;;4999211;28;20522;-61
2022/04/25 11:36:13;;;;;;;6.00;4.17;;;9.20;99.90;;;;;;5000284;28;20439;-61
2022/04/25 11:41:33;;;;;;;4.73;4.00;;;9.30;99.90;;;;;;4996294;28;20434;-60
2022/04/25 11:43:59;;;;;;;8.90;4.77;;;9.30;99.90;;;;;;4991312;28;20447;-60
2022/04/25 11:46:26;;;;;;;6.33;5.73;;;9.40;99.90;;;;;;5003530;28;20943;-60
2022/04/25 11:48:53;;;;;;;4.87;4.07;;;9.40;99.90;;;;;;4991611;28;20500;-58
2022/04/25 11:51:30;;;;;;;5.03;4.30;;;9.50;99.90;;;;;;5001316;28;20863;-58
2022/04/25 11:53:58;;;;;;;5.90;4.53;;;9.60;99.90;;;;;;4995241;28;21241;-57
2022/04/25 11:56:25;;;;;;;6.30;4.50;;;9.80;99.90;;;;;;5002998;28;20795;-60
2022/04/25 11:58:51;;;;;;;6.20;4.50;;;9.80;99.90;;;;;;5007063;28;20435;-60
2022/04/25 12:01:48;;;;;;;5.77;3.97;;;9.90;99.90;;;;;;5002714;28;20443;-55
2022/04/25 12:04:18;;;;;;;4.13;3.73;;;10.00;99.90;;;;;;4999265;28;20459;-56
2022/04/25 12:06:56;;;;;;;4.10;3.70;;;10.10;99.90;;;;;;5006757;28;20991;-55
2022/04/25 12:18:21;;;;;;;3.90;3.57;;;10.50;99.90;;;;;;5003368;28;20480;-60
2022/04/25 12:21:06;;;;;;;5.47;4.13;;;10.70;99.90;;;;;;4997314;28;20940;-60
2022/04/25 12:23:39;;;;;;;4.10;3.70;;;10.80;99.90;;;;;;4996286;28;20439;-60
2022/04/25 12:26:08;;;;;;;6.80;5.47;;;10.90;99.90;;;;;;4992115;28;20998;-60
2022/04/25 12:28:38;;;;;;;5.37;4.30;;;10.90;99.90;;;;;;4995208;28;21134;-60
2022/04/25 12:31:08;;;;;;;7.00;4.10;;;11.00;99.90;;;;;;4998182;28;20510;-60
2022/04/25 12:33:43;;;;;;;6.50;4.20;;;11.00;99.90;;;;;;4999061;28;20807;-57
2022/04/25 12:36:19;;;;;;;5.53;4.67;;;11.10;99.90;;;;;;4996058;28;20985;-60
2022/04/25 12:39:11;;;;;;;4.87;4.00;;;11.20;99.90;;;;;;5001352;28;20434;-58
2022/04/25 12:41:38;;;;;;;5.30;4.10;;;11.40;99.90;;;;;;4985644;28;20439;-58
2022/04/25 12:44:09;;;;;;;3.87;3.47;;;11.70;99.90;;;;;;4997997;28;20448;-58
2022/04/25 12:47:15;;;;;;;5.10;3.87;;;11.90;99.90;;;;;;4997727;28;20437;-58
2022/04/25 12:49:45;;;;;;;4.00;3.60;;;12.00;99.90;;;;;;4956499;28;20465;-59
2022/04/25 12:52:12;;;;;;;3.90;3.50;;;12.20;99.90;;;;;;4993159;28;20436;-58
2022/04/25 12:54:41;;;;;;;4.93;4.43;;;12.40;99.90;;;;;;4998800;28;20459;-59
2022/04/25 12:57:17;;;;;;;4.90;4.07;;;12.60;99.90;;;;;;4996063;28;20439;-59
2022/04/25 12:59:44;;;;;;;4.77;4.03;;;12.70;99.90;;;;;;4994531;28;20529;-59
2022/04/25 13:02:18;;;;;;;4.47;4.03;;;12.80;99.90;;;;;;4995533;28;20524;-58
2022/04/25 13:04:52;;;;;;;5.23;3.37;;;12.90;99.90;;;;;;4998753;28;20518;-58
2022/04/25 13:07:28;;;;;;;3.67;3.27;;;13.20;99.90;;;;;;4998354;28;20535;-58
2022/04/25 13:09:56;;;;;;;3.50;3.20;;;13.70;99.90;;;;;;4980359;28;20470;-58
2022/04/25 13:12:24;;;;;;;3.50;3.20;;;14.20;99.90;;;;;;5000642;28;20520;-57
2022/04/25 13:14:50;;;;;;;3.20;2.90;;;14.80;99.90;;;;;;4978532;28;20447;-57
2022/04/25 13:17:16;;;;;;;3.23;2.93;;;15.40;99.90;;;;;;5001378;28;20443;-58
2022/04/25 13:19:43;;;;;;;2.90;2.70;;;15.70;99.80;;;;;;4982462;28;20596;-59
2022/04/25 13:22:09;;;;;;;4.00;3.00;;;15.50;84.70;;;;;;5000138;28;20184;-59
2022/04/25 13:24:35;;;;;;;4.70;2.73;;;14.90;90.30;;;;;;4998523;28;20545;-59
2022/04/25 13:27:02;;;;;;;5.63;3.40;;;14.60;93.80;;;;;;4999036;28;20439;-60
2022/04/25 13:29:28;;;;;;;7.40;5.63;;;14.50;97.00;;;;;;4999901;28;20936;-60
2022/04/25 13:31:54;;;;;;;3.40;3.10;;;14.40;96.30;;;;;;4999616;28;20450;-60
2022/04/25 13:34:19;;;;;;;3.17;2.87;;;14.50;97.50;;;;;;5000142;28;20212;-59
2022/04/25 13:36:45;;;;;;;4.40;3.10;;;14.90;95.60;;;;;;4998903;28;20263;-60
2022/04/25 13:39:11;;;;;;;3.30;3.00;;;14.90;93.10;;;;;;5000997;28;20283;-59